sensor_id;sensor_type;location;lat;lon;timestamp;temperature;humidity
58933;DHT22;44716;51.022;6.818;2024-01-30T00:01:41;21.70;58.30
58933;DHT22;44716;51.022;6.818;2024-01-30T00:04:07;21.70;58.30
58933;DHT22;44716;51.022;6.818;2024-01-30T00:06:32;21.70;58.30
58933;DHT22;44716;51.022;6.818;2024-01-30T00:08:58;21.70;58.30
58933;DHT22;44716;51.022;6.818;2024-01-30T00:11:24;21.70;58.30
58933;DHT22;44716;51.022;6.818;2024-01-30T00:13:54;21.70;58.30
58933;DHT22;44716;51.022;6.818;2024-01-30T00:16:21;21.60;58.30
58933;DHT22;44716;51.022;6.818;2024-01-30T00:18:48;21.60;58.40
58933;DHT22;44716;51.022;6.818;2024-01-30T00:21:13;21.60;58.40
58933;DHT22;44716;51.022;6.818;2024-01-30T00:23:39;21.60;58.40
58933;DHT22;44716;51.022;6.818;2024-01-30T00:26:04;21.50;58.40
58933;DHT22;44716;51.022;6.818;2024-01-30T00:28:30;21.50;58.60
58933;DHT22;44716;51.022;6.818;2024-01-30T00:30:56;21.50;59.10
58933;DHT22;44716;51.022;6.818;2024-01-30T00:33:22;21.50;58.60
58933;DHT22;44716;51.022;6.818;2024-01-30T00:35:47;21.50;58.50
58933;DHT22;44716;51.022;6.818;2024-01-30T00:38:13;21.50;58.50
58933;DHT22;44716;51.022;6.818;2024-01-30T00:40:38;21.50;58.60
58933;DHT22;44716;51.022;6.818;2024-01-30T00:43:04;21.50;58.60
58933;DHT22;44716;51.022;6.818;2024-01-30T00:45:29;21.50;58.60
58933;DHT22;44716;51.022;6.818;2024-01-30T00:47:55;21.40;58.60
58933;DHT22;44716;51.022;6.818;2024-01-30T00:50:20;21.40;58.50
58933;DHT22;44716;51.022;6.818;2024-01-30T00:52:46;21.50;58.60
58933;DHT22;44716;51.022;6.818;2024-01-30T00:55:11;21.40;58.70
58933;DHT22;44716;51.022;6.818;2024-01-30T00:57:37;21.40;58.70
58933;DHT22;44716;51.022;6.818;2024-01-30T01:00:03;21.30;58.70
58933;DHT22;44716;51.022;6.818;2024-01-30T01:02:29;21.30;58.80
58933;DHT22;44716;51.022;6.818;2024-01-30T01:04:54;21.30;58.80
58933;DHT22;44716;51.022;6.818;2024-01-30T01:07:20;21.30;58.80
58933;DHT22;44716;51.022;6.818;2024-01-30T01:09:45;21.30;58.80
58933;DHT22;44716;51.022;6.818;2024-01-30T01:12:11;21.30;58.90
58933;DHT22;44716;51.022;6.818;2024-01-30T01:14:36;21.30;58.80
58933;DHT22;44716;51.022;6.818;2024-01-30T01:17:02;21.20;58.80
58933;DHT22;44716;51.022;6.818;2024-01-30T01:19:27;21.20;58.90
58933;DHT22;44716;51.022;6.818;2024-01-30T01:21:53;21.20;58.80
58933;DHT22;44716;51.022;6.818;2024-01-30T01:24:18;21.20;59.00
58933;DHT22;44716;51.022;6.818;2024-01-30T01:26:44;21.20;59.00
58933;DHT22;44716;51.022;6.818;2024-01-30T01:29:09;21.20;59.00
58933;DHT22;44716;51.022;6.818;2024-01-30T01:31:37;21.10;59.00
58933;DHT22;44716;51.022;6.818;2024-01-30T01:34:11;21.10;59.20
58933;DHT22;44716;51.022;6.818;2024-01-30T01:36:37;21.10;59.80
58933;DHT22;44716;51.022;6.818;2024-01-30T01:39:02;21.10;59.10
58933;DHT22;44716;51.022;6.818;2024-01-30T01:41:32;21.10;59.10
58933;DHT22;44716;51.022;6.818;2024-01-30T01:43:58;21.10;59.10
58933;DHT22;44716;51.022;6.818;2024-01-30T01:46:24;21.10;59.20
58933;DHT22;44716;51.022;6.818;2024-01-30T01:48:50;21.10;59.20
58933;DHT22;44716;51.022;6.818;2024-01-30T01:51:16;21.00;59.30
58933;DHT22;44716;51.022;6.818;2024-01-30T01:53:41;21.00;59.30
58933;DHT22;44716;51.022;6.818;2024-01-30T01:56:07;21.00;59.30
58933;DHT22;44716;51.022;6.818;2024-01-30T01:58:34;21.00;59.40
58933;DHT22;44716;51.022;6.818;2024-01-30T02:01:00;21.00;59.40
58933;DHT22;44716;51.022;6.818;2024-01-30T02:03:27;21.00;59.40
58933;DHT22;44716;51.022;6.818;2024-01-30T02:05:53;21.00;59.50
58933;DHT22;44716;51.022;6.818;2024-01-30T02:08:19;21.00;59.40
58933;DHT22;44716;51.022;6.818;2024-01-30T02:10:44;21.00;59.30
58933;DHT22;44716;51.022;6.818;2024-01-30T02:13:13;21.00;59.30
58933;DHT22;44716;51.022;6.818;2024-01-30T02:15:38;20.90;59.40
58933;DHT22;44716;51.022;6.818;2024-01-30T02:18:04;21.00;59.40
58933;DHT22;44716;51.022;6.818;2024-01-30T02:20:30;20.90;59.30
58933;DHT22;44716;51.022;6.818;2024-01-30T02:22:57;20.90;59.40
58933;DHT22;44716;51.022;6.818;2024-01-30T02:25:30;20.90;59.50
58933;DHT22;44716;51.022;6.818;2024-01-30T02:27:56;20.90;59.60
58933;DHT22;44716;51.022;6.818;2024-01-30T02:30:22;20.90;59.60
58933;DHT22;44716;51.022;6.818;2024-01-30T02:32:47;20.90;59.50
58933;DHT22;44716;51.022;6.818;2024-01-30T02:35:13;20.90;59.50
58933;DHT22;44716;51.022;6.818;2024-01-30T02:37:38;20.90;59.50
58933;DHT22;44716;51.022;6.818;2024-01-30T02:40:04;20.90;59.40
58933;DHT22;44716;51.022;6.818;2024-01-30T02:42:29;20.90;59.30
58933;DHT22;44716;51.022;6.818;2024-01-30T02:44:55;20.80;59.50
58933;DHT22;44716;51.022;6.818;2024-01-30T02:47:21;20.80;59.50
58933;DHT22;44716;51.022;6.818;2024-01-30T02:49:46;20.90;59.50
58933;DHT22;44716;51.022;6.818;2024-01-30T02:52:12;20.80;59.60
58933;DHT22;44716;51.022;6.818;2024-01-30T05:31:33;19.90;64.70
58933;DHT22;44716;51.022;6.818;2024-01-30T05:33:59;20.10;61.90
58933;DHT22;44716;51.022;6.818;2024-01-30T05:36:25;20.00;62.10
58933;DHT22;44716;51.022;6.818;2024-01-30T05:38:50;20.00;62.00
58933;DHT22;44716;51.022;6.818;2024-01-30T05:41:16;20.10;61.80
58933;DHT22;44716;51.022;6.818;2024-01-30T05:43:42;20.10;61.80
58933;DHT22;44716;51.022;6.818;2024-01-30T05:46:07;20.20;61.90
58933;DHT22;44716;51.022;6.818;2024-01-30T05:48:33;20.20;61.70
58933;DHT22;44716;51.022;6.818;2024-01-30T05:51:00;20.40;61.60
58933;DHT22;44716;51.022;6.818;2024-01-30T05:53:26;20.40;61.30
58933;DHT22;44716;51.022;6.818;2024-01-30T05:55:52;20.50;61.00
58933;DHT22;44716;51.022;6.818;2024-01-30T05:58:17;20.50;60.80
58933;DHT22;44716;51.022;6.818;2024-01-30T06:00:43;20.70;61.00
58933;DHT22;44716;51.022;6.818;2024-01-30T06:03:09;20.70;60.60
58933;DHT22;44716;51.022;6.818;2024-01-30T06:05:34;20.70;60.30
58933;DHT22;44716;51.022;6.818;2024-01-30T06:07:59;20.70;60.10
58933;DHT22;44716;51.022;6.818;2024-01-30T06:10:25;20.70;60.10
58933;DHT22;44716;51.022;6.818;2024-01-30T06:12:50;20.70;60.10
58933;DHT22;44716;51.022;6.818;2024-01-30T06:15:16;20.80;60.10
58933;DHT22;44716;51.022;6.818;2024-01-30T06:17:41;20.80;60.10
58933;DHT22;44716;51.022;6.818;2024-01-30T06:20:07;20.80;60.00
58933;DHT22;44716;51.022;6.818;2024-01-30T06:22:33;20.80;60.00
58933;DHT22;44716;51.022;6.818;2024-01-30T06:24:58;20.80;59.90
58933;DHT22;44716;51.022;6.818;2024-01-30T06:27:24;20.80;59.90
58933;DHT22;44716;51.022;6.818;2024-01-30T06:29:49;20.80;59.90
58933;DHT22;44716;51.022;6.818;2024-01-30T06:32:15;20.80;59.90
58933;DHT22;44716;51.022;6.818;2024-01-30T06:34:41;20.80;60.00
58933;DHT22;44716;51.022;6.818;2024-01-30T06:37:06;20.70;60.00
58933;DHT22;44716;51.022;6.818;2024-01-30T06:39:32;20.70;60.00
58933;DHT22;44716;51.022;6.818;2024-01-30T06:41:57;20.70;60.00
58933;DHT22;44716;51.022;6.818;2024-01-30T06:44:23;20.70;60.10
58933;DHT22;44716;51.022;6.818;2024-01-30T06:46:48;20.70;60.10
58933;DHT22;44716;51.022;6.818;2024-01-30T06:49:14;20.70;60.20
58933;DHT22;44716;51.022;6.818;2024-01-30T06:51:39;20.60;60.10
58933;DHT22;44716;51.022;6.818;2024-01-30T06:54:05;20.60;60.20
58933;DHT22;44716;51.022;6.818;2024-01-30T06:56:30;20.60;60.20
58933;DHT22;44716;51.022;6.818;2024-01-30T06:58:56;20.60;60.10
58933;DHT22;44716;51.022;6.818;2024-01-30T07:01:29;20.60;60.30
58933;DHT22;44716;51.022;6.818;2024-01-30T07:03:55;20.60;60.20
58933;DHT22;44716;51.022;6.818;2024-01-30T07:06:21;20.60;60.30
58933;DHT22;44716;51.022;6.818;2024-01-30T07:08:47;20.50;60.30
58933;DHT22;44716;51.022;6.818;2024-01-30T07:11:19;20.50;60.40
58933;DHT22;44716;51.022;6.818;2024-01-30T07:13:46;20.50;60.30
58933;DHT22;44716;51.022;6.818;2024-01-30T07:16:12;20.50;60.50
58933;DHT22;44716;51.022;6.818;2024-01-30T07:18:38;20.50;60.50
58933;DHT22;44716;51.022;6.818;2024-01-30T07:21:03;20.40;60.50
58933;DHT22;44716;51.022;6.818;2024-01-30T07:23:29;20.40;60.50
58933;DHT22;44716;51.022;6.818;2024-01-30T07:25:55;20.40;60.70
58933;DHT22;44716;51.022;6.818;2024-01-30T07:28:21;20.40;60.70
58933;DHT22;44716;51.022;6.818;2024-01-30T07:30:46;20.40;60.80
58933;DHT22;44716;51.022;6.818;2024-01-30T07:33:12;20.40;60.70
58933;DHT22;44716;51.022;6.818;2024-01-30T07:35:38;20.40;60.70
58933;DHT22;44716;51.022;6.818;2024-01-30T07:38:03;20.30;60.70
58933;DHT22;44716;51.022;6.818;2024-01-30T07:40:29;20.30;60.70
58933;DHT22;44716;51.022;6.818;2024-01-30T07:42:55;20.30;60.70
58933;DHT22;44716;51.022;6.818;2024-01-30T07:45:20;20.30;60.70
58933;DHT22;44716;51.022;6.818;2024-01-30T07:47:50;20.30;60.80
58933;DHT22;44716;51.022;6.818;2024-01-30T07:50:16;20.30;60.80
58933;DHT22;44716;51.022;6.818;2024-01-30T07:52:45;20.30;60.80
58933;DHT22;44716;51.022;6.818;2024-01-30T07:55:11;20.30;60.90
58933;DHT22;44716;51.022;6.818;2024-01-30T07:57:40;20.30;60.90
58933;DHT22;44716;51.022;6.818;2024-01-30T08:00:06;20.20;60.90
58933;DHT22;44716;51.022;6.818;2024-01-30T08:02:32;20.30;60.90
58933;DHT22;44716;51.022;6.818;2024-01-30T08:04:58;20.20;60.90
58933;DHT22;44716;51.022;6.818;2024-01-30T08:07:23;20.20;60.90
58933;DHT22;44716;51.022;6.818;2024-01-30T08:09:50;20.20;60.90
58933;DHT22;44716;51.022;6.818;2024-01-30T08:12:15;20.20;60.80
58933;DHT22;44716;51.022;6.818;2024-01-30T08:14:41;20.20;60.90
58933;DHT22;44716;51.022;6.818;2024-01-30T08:17:06;20.20;61.40
58933;DHT22;44716;51.022;6.818;2024-01-30T08:19:33;20.20;61.00
58933;DHT22;44716;51.022;6.818;2024-01-30T08:21:58;20.20;61.00
58933;DHT22;44716;51.022;6.818;2024-01-30T08:24:24;20.20;61.00
58933;DHT22;44716;51.022;6.818;2024-01-30T08:26:49;20.20;61.00
58933;DHT22;44716;51.022;6.818;2024-01-30T08:29:15;20.20;61.00
58933;DHT22;44716;51.022;6.818;2024-01-30T08:31:40;20.10;61.00
58933;DHT22;44716;51.022;6.818;2024-01-30T08:34:06;20.10;61.00
58933;DHT22;44716;51.022;6.818;2024-01-30T08:36:31;20.10;60.90
58933;DHT22;44716;51.022;6.818;2024-01-30T08:38:57;20.10;61.10
58933;DHT22;44716;51.022;6.818;2024-01-30T08:41:22;20.10;61.00
58933;DHT22;44716;51.022;6.818;2024-01-30T08:43:48;20.10;61.10
58933;DHT22;44716;51.022;6.818;2024-01-30T08:46:16;20.10;61.00
58933;DHT22;44716;51.022;6.818;2024-01-30T08:48:42;20.10;61.00
58933;DHT22;44716;51.022;6.818;2024-01-30T08:51:07;20.10;61.00
58933;DHT22;44716;51.022;6.818;2024-01-30T08:53:34;20.20;61.00
58933;DHT22;44716;51.022;6.818;2024-01-30T08:55:59;20.10;60.90
58933;DHT22;44716;51.022;6.818;2024-01-30T08:58:25;20.10;61.00
58933;DHT22;44716;51.022;6.818;2024-01-30T09:00:50;20.10;60.90
58933;DHT22;44716;51.022;6.818;2024-01-30T09:03:17;20.10;60.90
58933;DHT22;44716;51.022;6.818;2024-01-30T09:05:42;20.10;61.00
58933;DHT22;44716;51.022;6.818;2024-01-30T09:08:08;20.10;60.90
58933;DHT22;44716;51.022;6.818;2024-01-30T09:10:33;20.10;60.90
58933;DHT22;44716;51.022;6.818;2024-01-30T09:13:00;20.10;60.80
58933;DHT22;44716;51.022;6.818;2024-01-30T09:15:25;20.10;61.00
58933;DHT22;44716;51.022;6.818;2024-01-30T09:17:51;20.10;61.00
58933;DHT22;44716;51.022;6.818;2024-01-30T09:20:16;20.10;61.00
58933;DHT22;44716;51.022;6.818;2024-01-30T09:22:42;20.10;61.00
58933;DHT22;44716;51.022;6.818;2024-01-30T09:25:07;20.10;61.00
58933;DHT22;44716;51.022;6.818;2024-01-30T09:27:33;20.10;61.00
58933;DHT22;44716;51.022;6.818;2024-01-30T09:29:58;20.10;60.90
58933;DHT22;44716;51.022;6.818;2024-01-30T09:32:24;20.10;60.90
58933;DHT22;44716;51.022;6.818;2024-01-30T09:34:49;20.10;60.80
58933;DHT22;44716;51.022;6.818;2024-01-30T09:37:15;20.10;60.80
58933;DHT22;44716;51.022;6.818;2024-01-30T09:39:43;20.10;60.80
58933;DHT22;44716;51.022;6.818;2024-01-30T09:42:16;20.10;60.80
58933;DHT22;44716;51.022;6.818;2024-01-30T09:44:43;20.10;60.90
58933;DHT22;44716;51.022;6.818;2024-01-30T09:47:09;20.10;61.00
58933;DHT22;44716;51.022;6.818;2024-01-30T09:49:35;20.10;60.90
58933;DHT22;44716;51.022;6.818;2024-01-30T09:52:01;20.10;60.90
58933;DHT22;44716;51.022;6.818;2024-01-30T09:54:29;20.10;60.90
58933;DHT22;44716;51.022;6.818;2024-01-30T09:56:55;20.10;61.00
58933;DHT22;44716;51.022;6.818;2024-01-30T09:59:20;20.10;60.90
58933;DHT22;44716;51.022;6.818;2024-01-30T10:01:46;20.10;60.80
58933;DHT22;44716;51.022;6.818;2024-01-30T10:04:12;20.10;60.80
58933;DHT22;44716;51.022;6.818;2024-01-30T10:06:37;20.10;60.80
58933;DHT22;44716;51.022;6.818;2024-01-30T10:09:03;20.10;60.80
58933;DHT22;44716;51.022;6.818;2024-01-30T10:11:29;20.10;60.80
58933;DHT22;44716;51.022;6.818;2024-01-30T10:13:55;20.10;60.90
58933;DHT22;44716;51.022;6.818;2024-01-30T10:16:21;20.10;60.80
58933;DHT22;44716;51.022;6.818;2024-01-30T10:18:46;20.10;60.80
58933;DHT22;44716;51.022;6.818;2024-01-30T10:21:12;20.10;60.80
58933;DHT22;44716;51.022;6.818;2024-01-30T10:23:38;20.00;60.80
58933;DHT22;44716;51.022;6.818;2024-01-30T10:26:03;20.00;60.90
58933;DHT22;44716;51.022;6.818;2024-01-30T10:28:29;20.00;60.90
58933;DHT22;44716;51.022;6.818;2024-01-30T10:31:02;20.00;60.80
58933;DHT22;44716;51.022;6.818;2024-01-30T10:33:30;20.00;60.80
58933;DHT22;44716;51.022;6.818;2024-01-30T10:36:03;20.00;60.80
58933;DHT22;44716;51.022;6.818;2024-01-30T10:38:30;20.00;60.80
58933;DHT22;44716;51.022;6.818;2024-01-30T10:41:04;20.00;60.80
58933;DHT22;44716;51.022;6.818;2024-01-30T10:43:33;20.00;60.80
58933;DHT22;44716;51.022;6.818;2024-01-30T10:46:18;20.00;60.80
58933;DHT22;44716;51.022;6.818;2024-01-30T10:48:51;20.00;60.80
58933;DHT22;44716;51.022;6.818;2024-01-30T10:51:22;20.00;60.80
58933;DHT22;44716;51.022;6.818;2024-01-30T10:53:47;20.00;60.80
58933;DHT22;44716;51.022;6.818;2024-01-30T10:56:14;20.00;60.90
58933;DHT22;44716;51.022;6.818;2024-01-30T10:58:41;20.00;60.90
58933;DHT22;44716;51.022;6.818;2024-01-30T11:01:07;20.00;61.00
58933;DHT22;44716;51.022;6.818;2024-01-30T11:03:33;19.90;61.00
58933;DHT22;44716;51.022;6.818;2024-01-30T11:06:02;19.90;61.00
58933;DHT22;44716;51.022;6.818;2024-01-30T11:08:27;19.90;61.00
58933;DHT22;44716;51.022;6.818;2024-01-30T11:10:55;19.90;61.00
58933;DHT22;44716;51.022;6.818;2024-01-30T11:13:20;20.00;61.00
58933;DHT22;44716;51.022;6.818;2024-01-30T11:15:47;20.00;60.90
58933;DHT22;44716;51.022;6.818;2024-01-30T11:18:22;19.90;60.90
58933;DHT22;44716;51.022;6.818;2024-01-30T11:20:47;19.90;60.90
58933;DHT22;44716;51.022;6.818;2024-01-30T11:23:13;19.90;61.00
58933;DHT22;44716;51.022;6.818;2024-01-30T11:25:39;19.90;61.00
58933;DHT22;44716;51.022;6.818;2024-01-30T11:28:04;19.90;61.00
58933;DHT22;44716;51.022;6.818;2024-01-30T11:30:31;19.90;61.00
58933;DHT22;44716;51.022;6.818;2024-01-30T11:35:25;19.90;61.00
58933;DHT22;44716;51.022;6.818;2024-01-30T11:37:50;19.90;61.00
58933;DHT22;44716;51.022;6.818;2024-01-30T11:40:16;19.90;61.00
58933;DHT22;44716;51.022;6.818;2024-01-30T11:42:42;19.90;61.00
58933;DHT22;44716;51.022;6.818;2024-01-30T11:45:07;19.90;61.00
58933;DHT22;44716;51.022;6.818;2024-01-30T11:47:34;19.90;61.00
58933;DHT22;44716;51.022;6.818;2024-01-30T11:50:00;19.90;61.00
58933;DHT22;44716;51.022;6.818;2024-01-30T11:52:25;19.90;61.10
58933;DHT22;44716;51.022;6.818;2024-01-30T11:54:51;19.90;61.00
58933;DHT22;44716;51.022;6.818;2024-01-30T11:57:17;19.90;61.10
58933;DHT22;44716;51.022;6.818;2024-01-30T11:59:43;19.90;61.10
58933;DHT22;44716;51.022;6.818;2024-01-30T12:02:09;19.90;61.00
58933;DHT22;44716;51.022;6.818;2024-01-30T12:04:40;19.90;61.00
58933;DHT22;44716;51.022;6.818;2024-01-30T12:07:05;19.90;61.00
58933;DHT22;44716;51.022;6.818;2024-01-30T12:09:31;19.90;61.00
58933;DHT22;44716;51.022;6.818;2024-01-30T12:11:56;19.90;61.10
58933;DHT22;44716;51.022;6.818;2024-01-30T12:14:22;19.80;61.20
58933;DHT22;44716;51.022;6.818;2024-01-30T12:16:50;19.90;61.20
58933;DHT22;44716;51.022;6.818;2024-01-30T12:19:22;19.90;61.00
58933;DHT22;44716;51.022;6.818;2024-01-30T12:21:53;19.90;61.00
58933;DHT22;44716;51.022;6.818;2024-01-30T12:24:18;19.90;61.00
58933;DHT22;44716;51.022;6.818;2024-01-30T12:26:44;19.90;61.00
58933;DHT22;44716;51.022;6.818;2024-01-30T12:29:09;19.90;61.00
58933;DHT22;44716;51.022;6.818;2024-01-30T12:31:35;19.90;61.00
58933;DHT22;44716;51.022;6.818;2024-01-30T12:34:00;19.90;61.10
58933;DHT22;44716;51.022;6.818;2024-01-30T12:36:26;19.90;61.00
58933;DHT22;44716;51.022;6.818;2024-01-30T12:38:52;19.90;61.00
58933;DHT22;44716;51.022;6.818;2024-01-30T12:41:19;19.90;61.00
58933;DHT22;44716;51.022;6.818;2024-01-30T12:43:45;19.80;61.10
58933;DHT22;44716;51.022;6.818;2024-01-30T12:46:10;19.90;61.10
58933;DHT22;44716;51.022;6.818;2024-01-30T12:48:36;19.90;61.00
58933;DHT22;44716;51.022;6.818;2024-01-30T12:51:02;19.90;61.00
58933;DHT22;44716;51.022;6.818;2024-01-30T12:53:27;19.80;61.00
58933;DHT22;44716;51.022;6.818;2024-01-30T12:55:53;19.80;61.00
58933;DHT22;44716;51.022;6.818;2024-01-30T12:58:19;19.80;61.00
58933;DHT22;44716;51.022;6.818;2024-01-30T13:00:45;19.80;61.00
58933;DHT22;44716;51.022;6.818;2024-01-30T13:03:12;19.80;61.00
58933;DHT22;44716;51.022;6.818;2024-01-30T13:05:38;19.80;61.10
58933;DHT22;44716;51.022;6.818;2024-01-30T13:08:03;19.80;61.00
58933;DHT22;44716;51.022;6.818;2024-01-30T13:10:29;19.80;61.00
58933;DHT22;44716;51.022;6.818;2024-01-30T13:12:54;19.80;61.10
58933;DHT22;44716;51.022;6.818;2024-01-30T13:15:20;19.80;61.00
58933;DHT22;44716;51.022;6.818;2024-01-30T13:17:48;19.80;61.00
58933;DHT22;44716;51.022;6.818;2024-01-30T13:20:13;19.90;61.00
58933;DHT22;44716;51.022;6.818;2024-01-30T13:22:43;19.80;61.00
58933;DHT22;44716;51.022;6.818;2024-01-30T13:25:08;19.90;61.00
58933;DHT22;44716;51.022;6.818;2024-01-30T13:27:34;19.90;61.00
58933;DHT22;44716;51.022;6.818;2024-01-30T13:29:59;19.90;61.00
58933;DHT22;44716;51.022;6.818;2024-01-30T13:32:25;19.80;61.00
58933;DHT22;44716;51.022;6.818;2024-01-30T13:34:51;19.80;61.00
58933;DHT22;44716;51.022;6.818;2024-01-30T13:37:16;19.80;61.00
58933;DHT22;44716;51.022;6.818;2024-01-30T13:39:42;19.80;61.00
58933;DHT22;44716;51.022;6.818;2024-01-30T13:42:07;19.80;61.00
58933;DHT22;44716;51.022;6.818;2024-01-30T13:44:34;19.80;61.00
58933;DHT22;44716;51.022;6.818;2024-01-30T13:46:59;19.80;60.90
58933;DHT22;44716;51.022;6.818;2024-01-30T13:49:25;19.80;61.00
58933;DHT22;44716;51.022;6.818;2024-01-30T13:51:50;19.80;61.00
58933;DHT22;44716;51.022;6.818;2024-01-30T13:54:16;19.80;61.00
58933;DHT22;44716;51.022;6.818;2024-01-30T13:56:41;19.80;60.90
58933;DHT22;44716;51.022;6.818;2024-01-30T13:59:07;19.80;60.90
58933;DHT22;44716;51.022;6.818;2024-01-30T14:01:32;19.80;60.90
58933;DHT22;44716;51.022;6.818;2024-01-30T14:03:58;19.80;60.90
58933;DHT22;44716;51.022;6.818;2024-01-30T14:06:23;19.80;60.80
58933;DHT22;44716;51.022;6.818;2024-01-30T14:08:49;19.80;60.90
58933;DHT22;44716;51.022;6.818;2024-01-30T14:11:15;19.80;61.70
58933;DHT22;44716;51.022;6.818;2024-01-30T14:13:40;19.80;60.90
58933;DHT22;44716;51.022;6.818;2024-01-30T14:16:06;19.80;60.90
58933;DHT22;44716;51.022;6.818;2024-01-30T14:18:31;19.80;60.80
58933;DHT22;44716;51.022;6.818;2024-01-30T14:20:57;19.80;60.90
58933;DHT22;44716;51.022;6.818;2024-01-30T14:23:23;19.80;60.90
58933;DHT22;44716;51.022;6.818;2024-01-30T14:25:48;19.80;60.90
58933;DHT22;44716;51.022;6.818;2024-01-30T14:28:14;19.80;60.90
58933;DHT22;44716;51.022;6.818;2024-01-30T14:30:40;19.80;61.00
58933;DHT22;44716;51.022;6.818;2024-01-30T14:33:05;19.80;60.90
58933;DHT22;44716;51.022;6.818;2024-01-30T14:35:32;19.80;60.80
58933;DHT22;44716;51.022;6.818;2024-01-30T14:37:59;19.80;60.90
58933;DHT22;44716;51.022;6.818;2024-01-30T14:40:24;19.80;60.90
58933;DHT22;44716;51.022;6.818;2024-01-30T14:42:50;19.80;60.90
58933;DHT22;44716;51.022;6.818;2024-01-30T14:45:15;19.80;60.90
58933;DHT22;44716;51.022;6.818;2024-01-30T14:47:41;19.80;60.90
58933;DHT22;44716;51.022;6.818;2024-01-30T14:50:07;19.80;60.80
58933;DHT22;44716;51.022;6.818;2024-01-30T14:52:33;19.80;60.90
58933;DHT22;44716;51.022;6.818;2024-01-30T14:54:59;19.80;60.90
58933;DHT22;44716;51.022;6.818;2024-01-30T14:57:24;19.80;60.90
58933;DHT22;44716;51.022;6.818;2024-01-30T14:59:50;19.80;60.90
58933;DHT22;44716;51.022;6.818;2024-01-30T15:02:15;19.80;60.90
58933;DHT22;44716;51.022;6.818;2024-01-30T15:04:41;19.70;60.90
58933;DHT22;44716;51.022;6.818;2024-01-30T15:07:07;19.80;60.90
58933;DHT22;44716;51.022;6.818;2024-01-30T15:09:32;19.80;60.90
58933;DHT22;44716;51.022;6.818;2024-01-30T15:11:58;19.70;60.80
58933;DHT22;44716;51.022;6.818;2024-01-30T15:14:24;19.80;60.90
58933;DHT22;44716;51.022;6.818;2024-01-30T15:16:49;19.80;60.80
58933;DHT22;44716;51.022;6.818;2024-01-30T15:19:15;19.80;60.90
58933;DHT22;44716;51.022;6.818;2024-01-30T15:21:40;19.70;60.80
58933;DHT22;44716;51.022;6.818;2024-01-30T15:24:06;19.70;60.80
58933;DHT22;44716;51.022;6.818;2024-01-30T15:26:32;19.80;60.80
58933;DHT22;44716;51.022;6.818;2024-01-30T15:28:57;19.80;60.80
58933;DHT22;44716;51.022;6.818;2024-01-30T15:31:23;19.70;60.80
58933;DHT22;44716;51.022;6.818;2024-01-30T15:33:48;19.70;60.80
58933;DHT22;44716;51.022;6.818;2024-01-30T15:36:14;19.70;60.80
58933;DHT22;44716;51.022;6.818;2024-01-30T15:38:40;19.70;60.80
58933;DHT22;44716;51.022;6.818;2024-01-30T15:41:05;19.70;60.90
58933;DHT22;44716;51.022;6.818;2024-01-30T15:43:31;19.70;60.90
58933;DHT22;44716;51.022;6.818;2024-01-30T15:45:58;19.70;60.90
58933;DHT22;44716;51.022;6.818;2024-01-30T15:48:24;19.70;61.00
58933;DHT22;44716;51.022;6.818;2024-01-30T15:50:49;19.70;61.00
58933;DHT22;44716;51.022;6.818;2024-01-30T15:53:15;19.70;61.00
58933;DHT22;44716;51.022;6.818;2024-01-30T15:55:40;19.70;60.90
58933;DHT22;44716;51.022;6.818;2024-01-30T15:58:06;19.70;60.90
58933;DHT22;44716;51.022;6.818;2024-01-30T16:00:32;19.70;61.00
58933;DHT22;44716;51.022;6.818;2024-01-30T16:02:57;19.70;60.90
58933;DHT22;44716;51.022;6.818;2024-01-30T16:05:23;19.70;60.80
58933;DHT22;44716;51.022;6.818;2024-01-30T16:07:49;19.70;60.90
58933;DHT22;44716;51.022;6.818;2024-01-30T16:10:14;19.70;60.80
58933;DHT22;44716;51.022;6.818;2024-01-30T16:12:44;19.70;60.80
58933;DHT22;44716;51.022;6.818;2024-01-30T16:15:14;19.70;60.90
58933;DHT22;44716;51.022;6.818;2024-01-30T16:17:39;19.70;60.80
58933;DHT22;44716;51.022;6.818;2024-01-30T16:20:05;19.70;60.80
58933;DHT22;44716;51.022;6.818;2024-01-30T16:22:34;19.70;60.80
58933;DHT22;44716;51.022;6.818;2024-01-30T16:25:00;19.70;60.70
58933;DHT22;44716;51.022;6.818;2024-01-30T16:27:26;19.70;60.80
58933;DHT22;44716;51.022;6.818;2024-01-30T16:29:52;19.70;60.80
58933;DHT22;44716;51.022;6.818;2024-01-30T16:32:18;19.70;60.90
58933;DHT22;44716;51.022;6.818;2024-01-30T16:34:43;19.70;60.80
58933;DHT22;44716;51.022;6.818;2024-01-30T16:37:10;19.70;60.70
58933;DHT22;44716;51.022;6.818;2024-01-30T16:39:35;19.70;60.80
58933;DHT22;44716;51.022;6.818;2024-01-30T16:42:01;19.70;60.80
58933;DHT22;44716;51.022;6.818;2024-01-30T16:44:27;19.70;60.80
58933;DHT22;44716;51.022;6.818;2024-01-30T16:46:52;19.70;60.70
58933;DHT22;44716;51.022;6.818;2024-01-30T16:49:18;19.70;60.60
58933;DHT22;44716;51.022;6.818;2024-01-30T16:51:43;19.80;60.50
58933;DHT22;44716;51.022;6.818;2024-01-30T16:54:09;19.80;60.40
58933;DHT22;44716;51.022;6.818;2024-01-30T16:56:34;19.90;60.30
58933;DHT22;44716;51.022;6.818;2024-01-30T16:59:00;19.90;60.30
58933;DHT22;44716;51.022;6.818;2024-01-30T17:01:25;19.90;60.30
58933;DHT22;44716;51.022;6.818;2024-01-30T17:03:51;20.00;60.30
58933;DHT22;44716;51.022;6.818;2024-01-30T17:06:17;20.00;60.30
58933;DHT22;44716;51.022;6.818;2024-01-30T17:08:42;20.00;60.20
58933;DHT22;44716;51.022;6.818;2024-01-30T17:11:08;20.00;60.10
58933;DHT22;44716;51.022;6.818;2024-01-30T17:13:37;20.00;60.10
58933;DHT22;44716;51.022;6.818;2024-01-30T17:16:02;20.00;60.40
58933;DHT22;44716;51.022;6.818;2024-01-30T17:18:29;20.00;60.10
58933;DHT22;44716;51.022;6.818;2024-01-30T17:20:55;20.10;61.00
58933;DHT22;44716;51.022;6.818;2024-01-30T17:23:21;20.10;60.10
58933;DHT22;44716;51.022;6.818;2024-01-30T17:25:49;20.10;60.10
58933;DHT22;44716;51.022;6.818;2024-01-30T17:28:15;20.10;60.10
58933;DHT22;44716;51.022;6.818;2024-01-30T17:30:41;20.10;60.10
58933;DHT22;44716;51.022;6.818;2024-01-30T17:33:07;20.10;60.80
58933;DHT22;44716;51.022;6.818;2024-01-30T17:35:32;20.10;60.00
58933;DHT22;44716;51.022;6.818;2024-01-30T17:37:58;20.10;59.90
58933;DHT22;44716;51.022;6.818;2024-01-30T17:40:24;20.10;59.70
58933;DHT22;44716;51.022;6.818;2024-01-30T17:42:49;20.10;59.80
58933;DHT22;44716;51.022;6.818;2024-01-30T17:45:15;20.10;59.90
58933;DHT22;44716;51.022;6.818;2024-01-30T17:47:40;20.20;59.90
58933;DHT22;44716;51.022;6.818;2024-01-30T17:50:06;20.20;59.80
58933;DHT22;44716;51.022;6.818;2024-01-30T17:52:31;20.30;59.70
58933;DHT22;44716;51.022;6.818;2024-01-30T17:54:57;20.30;59.70
58933;DHT22;44716;51.022;6.818;2024-01-30T17:57:23;21.00;64.50
58933;DHT22;44716;51.022;6.818;2024-01-30T17:59:49;20.60;59.60
58933;DHT22;44716;51.022;6.818;2024-01-30T18:02:15;20.50;59.50